createdAt,value
2023-04-03T00:02:15.957Z,2.66
2023-04-03T00:04:50.136Z,2.64
2023-04-03T00:07:21.675Z,2.61
2023-04-03T00:09:57.831Z,2.59
2023-04-03T00:12:28.874Z,2.56
2023-04-03T00:15:04.367Z,2.51
2023-04-03T00:17:35.804Z,2.49
2023-04-03T00:20:07.222Z,2.45
2023-04-03T00:22:47.086Z,2.42
2023-04-03T00:25:16.365Z,2.39
2023-04-03T00:27:46.341Z,2.37
2023-04-03T00:30:23.461Z,2.35
2023-04-03T00:32:56.031Z,2.33
2023-04-03T00:35:26.324Z,2.29
2023-04-03T00:37:57.925Z,2.28
2023-04-03T00:40:29.191Z,2.25
2023-04-03T00:43:00.948Z,2.20
2023-04-03T00:45:42.364Z,2.20
2023-04-03T00:48:25.870Z,2.16
2023-04-03T00:50:54.498Z,2.18
2023-04-03T00:53:35.529Z,2.15
2023-04-03T00:56:07.540Z,2.11
2023-04-03T00:59:14.389Z,2.09
2023-04-03T01:01:56.827Z,2.05
2023-04-03T01:04:34.040Z,2.06
2023-04-03T01:07:17.417Z,2.02
2023-04-03T01:09:56.537Z,2.00
2023-04-03T01:12:30.384Z,1.97
2023-04-03T01:15:11.140Z,1.95
2023-04-03T01:17:57.473Z,1.91
2023-04-03T01:21:09.959Z,1.93
2023-04-03T01:24:14.192Z,1.88
2023-04-03T01:26:43.285Z,1.86
2023-04-03T01:29:14.025Z,1.86
2023-04-03T01:32:04.197Z,1.88
2023-04-03T01:34:43.156Z,1.85
2023-04-03T01:37:13.055Z,1.81
2023-04-03T01:39:41.169Z,1.80
2023-04-03T01:42:09.754Z,1.79
2023-04-03T01:44:40.993Z,1.74
2023-04-03T01:47:15.201Z,1.75
2023-04-03T01:49:53.966Z,1.77
2023-04-03T01:52:21.796Z,1.78
2023-04-03T01:54:55.138Z,1.75
2023-04-03T01:57:25.665Z,1.77
2023-04-03T02:00:08.755Z,1.77
2023-04-03T02:02:40.795Z,1.76
2023-04-03T02:05:12.105Z,1.76
2023-04-03T02:07:46.801Z,1.75
2023-04-03T02:10:14.501Z,1.69
2023-04-03T02:12:45.689Z,1.72
2023-04-03T02:15:13.930Z,1.73
2023-04-03T02:17:45.380Z,1.70
2023-04-03T02:20:16.562Z,1.64
2023-04-03T02:22:45.444Z,1.65
2023-04-03T02:25:14.383Z,1.63
2023-04-03T02:27:45.639Z,1.57
2023-04-03T02:30:23.100Z,1.60
2023-04-03T02:33:08.016Z,1.58
2023-04-03T02:35:58.728Z,1.57
2023-04-03T02:38:36.140Z,1.57
2023-04-03T02:41:13.890Z,1.55
2023-04-03T02:43:44.430Z,1.54
2023-04-03T02:46:16.681Z,1.51
2023-04-03T02:48:51.869Z,1.47
2023-04-03T02:51:21.171Z,1.48
2023-04-03T02:53:53.202Z,1.45
2023-04-03T02:56:28.381Z,1.41
2023-04-03T02:58:56.952Z,1.42
2023-04-03T03:01:26.473Z,1.35
2023-04-03T03:03:54.611Z,1.38
2023-04-03T03:06:24.540Z,1.37
2023-04-03T03:09:02.561Z,1.29
2023-04-03T03:11:39.669Z,1.34
2023-04-03T03:14:09.315Z,1.32
2023-04-03T03:16:37.662Z,1.30
2023-04-03T03:19:08.192Z,1.23
2023-04-03T03:21:36.351Z,1.21
2023-04-03T03:24:24.748Z,1.24
2023-04-03T03:27:00.339Z,1.22
2023-04-03T03:29:39.507Z,1.21
2023-04-03T03:32:07.842Z,1.17
2023-04-03T03:34:37.187Z,1.17
2023-04-03T03:37:09.370Z,1.14
2023-04-03T03:39:37.302Z,1.12
2023-04-03T03:42:04.949Z,1.10
2023-04-03T03:44:33.466Z,1.07
2023-04-03T03:47:03.461Z,1.02
2023-04-03T03:49:34.365Z,0.99
2023-04-03T03:52:03.988Z,1.02
2023-04-03T03:54:32.542Z,1.00
2023-04-03T03:57:10.677Z,0.97
2023-04-03T03:59:41.591Z,0.97
2023-04-03T04:02:14.628Z,0.94
2023-04-03T04:04:52.149Z,0.97
2023-04-03T04:07:22.470Z,0.94
2023-04-03T04:09:54.411Z,0.93
2023-04-03T04:12:23.567Z,0.93
2023-04-03T04:15:04.075Z,0.87
2023-04-03T04:17:33.849Z,0.90
2023-04-03T04:20:08.080Z,0.88
2023-04-03T04:22:39.996Z,0.86
2023-04-03T04:25:23.283Z,0.80
2023-04-03T04:27:56.302Z,0.81
2023-04-03T04:30:32.091Z,0.78
2023-04-03T04:33:03.648Z,0.73
2023-04-03T04:35:47.726Z,0.76
2023-04-03T04:42:21.395Z,0.75
2023-04-03T04:45:02.511Z,0.68
2023-04-03T04:54:25.784Z,0.60
2023-04-03T04:57:28.310Z,0.59
2023-04-03T05:00:12.976Z,0.58
2023-04-03T05:02:43.830Z,0.56
2023-04-03T05:08:26.019Z,0.57
2023-04-03T05:14:09.967Z,0.58
2023-04-03T05:16:41.140Z,0.58
2023-04-03T05:19:16.591Z,0.54
2023-04-03T05:22:16.259Z,0.60
2023-04-03T05:24:53.290Z,0.60
2023-04-03T05:30:21.378Z,0.57
2023-04-03T05:33:05.162Z,0.61
2023-04-03T05:35:59.360Z,0.82
2023-04-03T05:38:37.529Z,1.00
2023-04-03T05:41:07.415Z,1.12
2023-04-03T05:43:41.949Z,1.24
2023-04-03T05:46:23.475Z,1.38
2023-04-03T05:48:58.313Z,1.49
2023-04-03T05:51:45.094Z,1.59
2023-04-03T05:54:31.726Z,1.73
2023-04-03T06:00:10.955Z,2.01
2023-04-03T06:03:23.856Z,2.13
2023-04-03T06:06:09.830Z,2.23
2023-04-03T06:08:49.798Z,2.38
2023-04-03T06:11:25.377Z,2.53
2023-04-03T06:17:28.176Z,2.81
2023-04-03T06:20:02.604Z,2.93
2023-04-03T06:22:35.417Z,3.03
2023-04-03T06:25:19.820Z,3.12
2023-04-03T06:28:11.653Z,3.28
2023-04-03T06:30:45.452Z,3.34
2023-04-03T06:33:30.666Z,3.40
2023-04-03T06:36:46.204Z,3.33
2023-04-03T06:39:26.095Z,3.26
2023-04-03T06:52:48.944Z,3.49
2023-04-03T06:55:50.491Z,3.54
2023-04-03T07:01:59.248Z,3.99
2023-04-03T07:04:29.900Z,4.14
2023-04-03T07:07:04.945Z,4.08
2023-04-03T07:09:56.087Z,4.02
2023-04-03T07:12:29.386Z,3.97
2023-04-03T07:15:26.207Z,4.04
2023-04-03T07:18:07.382Z,4.15
2023-04-03T07:20:41.807Z,4.27
2023-04-03T07:23:15.549Z,4.39
2023-04-03T07:28:52.061Z,4.41
2023-04-03T07:31:22.517Z,4.40
2023-04-03T07:34:12.628Z,4.42
2023-04-03T07:39:38.089Z,4.57
2023-04-03T07:42:17.010Z,4.64
2023-04-03T07:45:09.124Z,4.88
2023-04-03T07:48:06.066Z,4.97
2023-04-03T07:51:04.768Z,5.11
2023-04-03T07:53:38.861Z,5.29
2023-04-03T07:56:45.467Z,5.50
2023-04-03T08:02:16.981Z,6.11
2023-04-03T08:08:10.227Z,6.73
2023-04-03T08:11:22.806Z,6.61
2023-04-03T08:14:09.363Z,6.25
2023-04-03T08:16:51.302Z,5.82
2023-04-03T08:19:33.453Z,5.62
2023-04-03T08:22:15.485Z,5.43
2023-04-03T08:27:52.094Z,5.12
2023-04-03T08:30:37.154Z,5.02
2023-04-03T08:33:10.882Z,4.97
2023-04-03T08:35:48.579Z,4.90
2023-04-03T08:38:21.444Z,4.82
2023-04-03T08:41:25.417Z,4.77
2023-04-03T08:44:31.355Z,4.69
2023-04-03T08:48:33.109Z,4.66
2023-04-03T08:51:20.337Z,4.61
2023-04-03T08:58:23.846Z,4.64
2023-04-03T09:01:42.712Z,4.78
2023-04-03T09:04:42.652Z,4.86
2023-04-03T09:07:59.164Z,4.89
2023-04-03T09:10:59.214Z,4.94
2023-04-03T09:14:25.045Z,4.95
2023-04-03T09:18:02.765Z,4.98
2023-04-03T09:21:44.561Z,5.07
2023-04-03T09:24:25.347Z,5.12
2023-04-03T09:27:13.245Z,5.19
2023-04-03T09:30:15.028Z,5.29
2023-04-03T09:32:59.636Z,5.31
2023-04-03T09:38:37.379Z,5.43
2023-04-03T09:41:22.011Z,5.41
2023-04-03T09:44:06.290Z,5.45
2023-04-03T09:46:41.820Z,5.54
2023-04-03T09:49:21.820Z,5.62
2023-04-03T09:51:55.032Z,5.66
2023-04-03T09:54:41.393Z,5.65
2023-04-03T09:57:14.456Z,5.71
2023-04-03T10:00:03.810Z,5.73
2023-04-03T10:02:41.239Z,5.80
2023-04-03T10:05:50.953Z,5.87
2023-04-03T10:08:34.297Z,5.87
2023-04-03T10:11:26.785Z,5.93
2023-04-03T10:14:09.109Z,6.04
2023-04-03T10:17:22.404Z,6.18
2023-04-03T10:20:39.917Z,6.95
2023-04-03T10:23:43.214Z,7.93
2023-04-03T10:26:54.969Z,8.69
2023-04-03T10:30:28.119Z,9.37
2023-04-03T10:34:04.081Z,10.03
2023-04-03T10:36:57.413Z,10.59
2023-04-03T10:39:58.988Z,10.88
2023-04-03T10:42:40.875Z,11.22
2023-04-03T10:45:30.154Z,11.46
2023-04-03T10:48:59.871Z,11.64
2023-04-03T10:52:23.410Z,11.76
2023-04-03T10:55:45.948Z,11.97
2023-04-03T10:58:45.696Z,12.11
2023-04-03T11:01:43.259Z,12.23
2023-04-03T11:04:31.064Z,12.63
2023-04-03T11:07:20.497Z,12.79
2023-04-03T11:10:04.318Z,12.93
2023-04-03T11:12:51.292Z,13.06
2023-04-03T11:15:34.008Z,13.25
2023-04-03T11:21:40.891Z,13.62
2023-04-03T11:24:35.949Z,13.73
2023-04-03T11:27:11.567Z,13.63
2023-04-03T11:29:50.167Z,13.66
2023-04-03T11:33:09.198Z,13.72
2023-04-03T11:35:58.747Z,13.57
2023-04-03T11:38:38.099Z,13.48
2023-04-03T11:41:11.761Z,13.28
2023-04-03T11:44:37.402Z,13.19
2023-04-03T11:47:11.493Z,13.09
2023-04-03T11:50:34.292Z,12.90
2023-04-03T11:53:06.584Z,12.85
2023-04-03T11:55:35.093Z,12.77
2023-04-03T11:58:03.347Z,12.67
2023-04-03T12:00:58.724Z,12.51
2023-04-03T12:04:12.058Z,12.35
2023-04-03T12:07:17.857Z,12.19
2023-04-03T12:10:25.185Z,12.10
2023-04-03T12:13:03.552Z,12.10
2023-04-03T12:15:38.090Z,12.12
2023-04-03T12:19:01.414Z,12.27
2023-04-03T12:21:47.655Z,12.31
2023-04-03T12:24:19.100Z,12.18
2023-04-03T12:27:31.231Z,12.01
2023-04-03T12:37:38.682Z,11.78
2023-04-03T12:40:57.984Z,11.68
2023-04-03T12:44:42.966Z,11.66
2023-04-03T12:47:51.362Z,11.55
2023-04-03T12:50:36.248Z,11.59
2023-04-03T12:53:16.363Z,11.63
2023-04-03T12:55:47.498Z,11.65
2023-04-03T12:58:29.883Z,11.71
2023-04-03T13:01:26.743Z,11.81
2023-04-03T13:04:06.781Z,11.87
2023-04-03T13:07:10.160Z,12.04
2023-04-03T13:09:39.056Z,12.30
2023-04-03T13:12:17.975Z,12.49
2023-04-03T13:15:13.692Z,12.64
2023-04-03T13:17:45.747Z,12.96
2023-04-03T13:20:42.010Z,13.13
2023-04-03T13:23:14.278Z,13.28
2023-04-03T13:25:48.389Z,13.48
2023-04-03T13:28:25.448Z,13.48
2023-04-03T13:31:42.075Z,13.26
2023-04-03T13:34:23.173Z,13.15
2023-04-03T13:37:02.276Z,13.07
2023-04-03T13:39:41.799Z,13.01
2023-04-03T13:42:35.363Z,13.14
2023-04-03T13:45:40.244Z,13.20
2023-04-03T13:48:24.820Z,13.15
2023-04-03T13:51:16.413Z,13.16
2023-04-03T13:54:33.983Z,13.11
2023-04-03T13:57:06.782Z,12.91
2023-04-03T13:59:37.236Z,12.60
2023-04-03T14:02:04.590Z,12.52
2023-04-03T14:04:49.544Z,12.61
2023-04-03T14:07:24.332Z,12.64
2023-04-03T14:10:13.102Z,12.72
2023-04-03T14:12:42.915Z,13.02
2023-04-03T14:15:33.094Z,13.13
2023-04-03T14:18:04.440Z,12.95
2023-04-03T14:20:33.390Z,13.09
2023-04-03T14:23:03.318Z,13.28
2023-04-03T14:25:31.888Z,13.38
2023-04-03T14:28:03.128Z,13.47
2023-04-03T14:30:36.614Z,13.51
2023-04-03T14:33:04.694Z,13.70
2023-04-03T14:35:35.797Z,13.90
2023-04-03T14:38:07.123Z,14.07
2023-04-03T14:40:35.164Z,14.31
2023-04-03T14:43:06.864Z,14.46
2023-04-03T14:45:38.770Z,14.38
2023-04-03T14:48:18.055Z,14.30
2023-04-03T14:51:04.583Z,14.31
2023-04-03T14:53:43.689Z,14.57
2023-04-03T14:56:33.866Z,14.72
2023-04-03T14:59:19.779Z,14.97
2023-04-03T15:01:50.746Z,15.22
2023-04-03T15:04:25.011Z,15.36
2023-04-03T15:06:54.323Z,15.30
2023-04-03T15:09:39.133Z,15.41
2023-04-03T15:12:11.584Z,15.37
2023-04-03T15:14:51.990Z,15.38
2023-04-03T15:17:29.060Z,15.34
2023-04-03T15:20:00.620Z,15.34
2023-04-03T15:22:35.694Z,15.34
2023-04-03T15:25:06.015Z,15.31
2023-04-03T15:27:36.654Z,15.22
2023-04-03T15:30:14.071Z,15.28
2023-04-03T15:32:46.354Z,15.22
2023-04-03T15:35:20.121Z,15.24
2023-04-03T15:37:53.413Z,15.17
2023-04-03T15:40:23.189Z,15.18
2023-04-03T15:42:54.379Z,15.11
2023-04-03T15:45:25.614Z,15.03
2023-04-03T15:47:54.559Z,15.06
2023-04-03T15:50:26.918Z,15.11
2023-04-03T15:53:02.842Z,14.96
2023-04-03T15:55:37.820Z,14.95
2023-04-03T15:58:06.216Z,14.81
2023-04-03T16:00:50.423Z,14.65
2023-04-03T16:03:24.004Z,14.50
2023-04-03T16:05:52.336Z,14.48
2023-04-03T16:08:23.543Z,14.48
2023-04-03T16:10:52.709Z,14.43
2023-04-03T16:13:27.362Z,14.09
2023-04-03T16:15:56.145Z,13.57
2023-04-03T16:18:38.533Z,13.04
2023-04-03T16:21:22.938Z,12.35
2023-04-03T16:23:54.114Z,11.66
2023-04-03T16:26:23.861Z,11.18
2023-04-03T16:28:55.466Z,10.75
2023-04-03T16:31:28.668Z,10.31
2023-04-03T16:33:59.782Z,10.09
2023-04-03T16:36:29.755Z,9.81
2023-04-03T16:39:07.399Z,9.57
2023-04-03T16:41:44.348Z,9.42
2023-04-03T16:47:12.617Z,9.19
2023-04-03T16:52:50.445Z,8.98
2023-04-03T16:55:43.725Z,8.87
2023-04-03T16:58:13.396Z,8.79
2023-04-03T17:00:48.287Z,8.68
2023-04-03T17:03:28.046Z,8.59
2023-04-03T17:06:04.284Z,8.49
2023-04-03T17:08:37.068Z,8.39
2023-04-03T17:11:09.245Z,8.28
2023-04-03T17:13:40.708Z,8.19
2023-04-03T17:16:15.255Z,8.17
2023-04-03T17:18:46.935Z,8.07
2023-04-03T17:21:29.469Z,8.04
2023-04-03T17:24:05.160Z,7.98
2023-04-03T17:26:52.099Z,7.93
2023-04-03T17:29:38.237Z,7.87
2023-04-03T17:32:25.298Z,7.78
2023-04-03T17:34:53.873Z,7.74
2023-04-03T17:37:24.153Z,7.69
2023-04-03T17:40:18.049Z,7.62
2023-04-03T17:49:29.405Z,7.43
2023-04-03T17:52:15.015Z,7.38
2023-04-03T17:54:46.588Z,7.25
2023-04-03T17:57:17.338Z,7.25
2023-04-03T17:59:48.560Z,7.20
2023-04-03T18:02:36.142Z,7.12
2023-04-03T18:05:04.381Z,7.06
2023-04-03T18:07:32.093Z,6.98
2023-04-03T18:13:18.509Z,6.85
2023-04-03T18:19:22.117Z,6.72
2023-04-03T18:25:26.540Z,6.58
2023-04-03T18:34:21.564Z,6.36
2023-04-03T18:37:23.908Z,6.27
2023-04-03T18:39:54.605Z,6.21
2023-04-03T18:42:29.029Z,6.17
2023-04-03T18:45:05.713Z,6.14
2023-04-03T18:47:37.069Z,6.11
2023-04-03T18:50:18.328Z,6.05
2023-04-03T18:53:03.086Z,6.02
2023-04-03T18:58:40.901Z,5.86
2023-04-03T19:01:12.026Z,5.83
2023-04-03T19:06:32.779Z,5.75
2023-04-03T19:09:07.629Z,5.71
2023-04-03T19:17:18.792Z,5.54
2023-04-03T19:19:51.320Z,5.50
2023-04-03T19:22:23.153Z,5.48
2023-04-03T19:24:55.862Z,5.42
2023-04-03T19:30:35.127Z,5.34
2023-04-03T19:33:04.841Z,5.29
2023-04-03T19:35:42.518Z,5.27
2023-04-03T20:04:27.963Z,4.83
2023-04-03T20:16:32.040Z,4.65
2023-04-03T20:19:06.039Z,4.61
2023-04-03T20:34:05.395Z,4.35
2023-04-03T20:36:39.610Z,4.34
2023-04-03T20:39:16.951Z,4.28
2023-04-03T20:42:01.358Z,4.25
2023-04-03T20:44:40.143Z,4.19
2023-04-03T20:47:12.878Z,4.19
2023-04-03T20:50:26.134Z,4.11
2023-04-03T20:55:42.276Z,4.05
2023-04-03T20:59:01.722Z,4.00
2023-04-03T21:02:05.384Z,3.95
2023-04-03T21:09:25.496Z,3.84
2023-04-03T21:16:51.788Z,3.72
2023-04-03T21:20:06.371Z,3.67
2023-04-03T21:26:26.786Z,3.54
2023-04-03T21:29:14.184Z,3.51
2023-04-03T21:38:05.066Z,3.38
2023-04-03T21:40:47.833Z,3.39
2023-04-03T21:43:29.201Z,3.35
2023-04-03T21:46:18.575Z,3.30
2023-04-03T21:48:50.747Z,3.30
2023-04-03T21:51:23.917Z,3.28
2023-04-03T21:53:56.826Z,3.23
2023-04-03T21:56:31.762Z,3.19
2023-04-03T21:59:06.271Z,3.16
2023-04-03T22:01:36.783Z,3.12
2023-04-03T22:04:09.786Z,3.09
2023-04-03T22:06:45.925Z,3.07
2023-04-03T22:09:21.761Z,3.04
2023-04-03T22:11:50.239Z,3.03
2023-04-03T22:14:21.014Z,3.00
2023-04-03T22:16:55.375Z,2.94
2023-04-03T22:19:42.685Z,2.91
2023-04-03T22:22:25.766Z,2.91
2023-04-03T22:24:56.406Z,2.81
2023-04-03T22:27:25.776Z,2.80
2023-04-03T22:30:02.347Z,2.81
2023-04-03T22:32:41.152Z,2.78
2023-04-03T22:35:13.285Z,2.73
2023-04-03T22:37:52.514Z,2.70
2023-04-03T22:40:24.986Z,2.66
2023-04-03T22:42:55.428Z,2.62
2023-04-03T22:45:30.426Z,2.64
2023-04-03T22:48:00.790Z,2.55
2023-04-03T22:50:35.109Z,2.58
2023-04-03T22:53:06.050Z,2.53
2023-04-03T22:55:45.046Z,2.49
2023-04-03T22:58:15.281Z,2.48
2023-04-03T23:00:51.610Z,2.41
2023-04-03T23:03:22.383Z,2.38
2023-04-03T23:06:06.697Z,2.37
2023-04-03T23:08:41.088Z,2.34
2023-04-03T23:11:10.455Z,2.27
2023-04-03T23:13:40.318Z,2.24
2023-04-03T23:16:09.784Z,2.27
2023-04-03T23:18:40.886Z,2.23
2023-04-03T23:21:19.539Z,2.21
2023-04-03T23:23:50.130Z,2.17
2023-04-03T23:26:21.254Z,2.08
2023-04-03T23:28:55.718Z,2.08
2023-04-03T23:31:26.334Z,2.05
2023-04-03T23:33:55.320Z,2.00
2023-04-03T23:36:27.769Z,1.99
2023-04-03T23:38:57.052Z,1.95
2023-04-03T23:41:25.174Z,1.92
2023-04-03T23:44:31.379Z,1.89
2023-04-03T23:47:00.219Z,1.86
2023-04-03T23:49:33.541Z,1.79
2023-04-03T23:52:07.493Z,1.79
2023-04-03T23:54:36.897Z,1.77
2023-04-03T23:57:06.381Z,1.73
2023-04-03T23:59:34.037Z,1.72
